sensor_id;sensor_type;location;lat;lon;timestamp;pressure;altitude;pressure_sealevel;temperature;humidity
82148;BME280;71718;50.480;12.110;2023-08-30T00:01:21;96959.66;;;14.30;76.51
82148;BME280;71718;50.480;12.110;2023-08-30T00:03:48;96973.13;;;14.27;76.44
82148;BME280;71718;50.480;12.110;2023-08-30T00:06:14;96966.00;;;14.22;76.67
82148;BME280;71718;50.480;12.110;2023-08-30T00:08:41;96969.84;;;14.20;76.86
82148;BME280;71718;50.480;12.110;2023-08-30T00:11:07;96967.81;;;14.22;76.62
82148;BME280;71718;50.480;12.110;2023-08-30T00:13:33;96968.81;;;14.21;76.84
82148;BME280;71718;50.480;12.110;2023-08-30T00:16:00;96969.41;;;14.23;76.68
82148;BME280;71718;50.480;12.110;2023-08-30T00:18:27;96969.97;;;14.25;76.44
82148;BME280;71718;50.480;12.110;2023-08-30T00:20:53;96968.69;;;14.27;76.26
82148;BME280;71718;50.480;12.110;2023-08-30T00:23:20;96964.88;;;14.30;76.37
82148;BME280;71718;50.480;12.110;2023-08-30T00:25:46;96973.91;;;14.27;76.30
82148;BME280;71718;50.480;12.110;2023-08-30T00:28:13;96977.66;;;14.20;76.36
82148;BME280;71718;50.480;12.110;2023-08-30T00:30:39;96977.44;;;14.21;76.50
82148;BME280;71718;50.480;12.110;2023-08-30T00:33:06;96969.09;;;14.19;76.41
82148;BME280;71718;50.480;12.110;2023-08-30T00:35:32;96974.81;;;14.21;76.44
82148;BME280;71718;50.480;12.110;2023-08-30T00:37:59;96978.00;;;14.23;76.31
82148;BME280;71718;50.480;12.110;2023-08-30T00:40:25;96979.13;;;14.27;76.14
82148;BME280;71718;50.480;12.110;2023-08-30T00:42:52;96982.81;;;14.31;75.97
82148;BME280;71718;50.480;12.110;2023-08-30T00:45:19;96987.81;;;14.33;75.99
82148;BME280;71718;50.480;12.110;2023-08-30T00:47:45;96988.16;;;14.36;75.68
82148;BME280;71718;50.480;12.110;2023-08-30T00:50:12;96983.75;;;14.37;75.32
82148;BME280;71718;50.480;12.110;2023-08-30T00:52:39;96984.88;;;14.41;75.10
82148;BME280;71718;50.480;12.110;2023-08-30T00:55:06;96980.44;;;14.41;75.04
82148;BME280;71718;50.480;12.110;2023-08-30T00:57:33;96979.44;;;14.42;75.10
82148;BME280;71718;50.480;12.110;2023-08-30T01:00:00;96970.38;;;14.45;74.96
82148;BME280;71718;50.480;12.110;2023-08-30T01:02:28;96967.78;;;14.45;74.77
82148;BME280;71718;50.480;12.110;2023-08-30T01:04:54;96963.03;;;14.42;74.94
82148;BME280;71718;50.480;12.110;2023-08-30T01:07:21;96964.38;;;14.44;74.74
82148;BME280;71718;50.480;12.110;2023-08-30T01:09:47;96959.19;;;14.44;74.68
82148;BME280;71718;50.480;12.110;2023-08-30T01:12:20;96961.78;;;14.44;74.79
82148;BME280;71718;50.480;12.110;2023-08-30T01:17:30;96958.28;;;14.39;74.74
82148;BME280;71718;50.480;12.110;2023-08-30T01:20:04;96952.84;;;14.40;74.96
82148;BME280;71718;50.480;12.110;2023-08-30T01:25:43;96958.81;;;14.41;74.84
82148;BME280;71718;50.480;12.110;2023-08-30T01:28:13;96959.53;;;14.36;74.61
82148;BME280;71718;50.480;12.110;2023-08-30T01:30:43;96956.94;;;14.36;74.65
82148;BME280;71718;50.480;12.110;2023-08-30T01:33:11;96959.75;;;14.35;75.04
82148;BME280;71718;50.480;12.110;2023-08-30T01:35:40;96970.38;;;14.33;75.14
82148;BME280;71718;50.480;12.110;2023-08-30T01:38:07;96959.19;;;14.33;75.16
82148;BME280;71718;50.480;12.110;2023-08-30T01:40:37;96963.38;;;14.34;75.16
82148;BME280;71718;50.480;12.110;2023-08-30T01:43:05;96971.19;;;14.34;75.44
82148;BME280;71718;50.480;12.110;2023-08-30T01:45:38;96969.38;;;14.34;75.30
82148;BME280;71718;50.480;12.110;2023-08-30T01:48:06;96975.38;;;14.35;74.77
82148;BME280;71718;50.480;12.110;2023-08-30T01:50:34;96971.53;;;14.37;74.57
82148;BME280;71718;50.480;12.110;2023-08-30T01:53:02;96972.53;;;14.36;74.62
82148;BME280;71718;50.480;12.110;2023-08-30T01:55:29;96977.75;;;14.36;74.67
82148;BME280;71718;50.480;12.110;2023-08-30T01:57:56;96969.72;;;14.38;74.68
82148;BME280;71718;50.480;12.110;2023-08-30T02:00:23;96971.72;;;14.36;74.64
82148;BME280;71718;50.480;12.110;2023-08-30T02:02:49;96977.97;;;14.35;74.67
82148;BME280;71718;50.480;12.110;2023-08-30T02:05:16;96975.28;;;14.30;74.61
82148;BME280;71718;50.480;12.110;2023-08-30T02:10:23;96975.19;;;14.25;74.98
82148;BME280;71718;50.480;12.110;2023-08-30T02:12:53;96969.84;;;14.20;74.95
82148;BME280;71718;50.480;12.110;2023-08-30T02:15:21;96976.53;;;14.16;75.24
82148;BME280;71718;50.480;12.110;2023-08-30T02:17:49;96977.00;;;14.13;75.35
82148;BME280;71718;50.480;12.110;2023-08-30T02:20:16;96979.03;;;14.11;75.36
82148;BME280;71718;50.480;12.110;2023-08-30T02:22:42;96982.13;;;14.08;75.65
82148;BME280;71718;50.480;12.110;2023-08-30T02:25:09;96986.31;;;14.09;75.64
82148;BME280;71718;50.480;12.110;2023-08-30T02:27:35;96974.75;;;14.04;75.57
82148;BME280;71718;50.480;12.110;2023-08-30T02:30:02;96973.41;;;14.02;75.90
82148;BME280;71718;50.480;12.110;2023-08-30T02:32:29;96968.31;;;13.95;76.09
82148;BME280;71718;50.480;12.110;2023-08-30T02:34:56;96961.31;;;13.96;75.98
82148;BME280;71718;50.480;12.110;2023-08-30T02:37:22;96961.78;;;13.93;76.21
82148;BME280;71718;50.480;12.110;2023-08-30T02:39:50;96963.03;;;13.90;76.18
82148;BME280;71718;50.480;12.110;2023-08-30T02:42:16;96963.25;;;13.89;76.28
82148;BME280;71718;50.480;12.110;2023-08-30T02:44:43;96963.03;;;13.90;76.27
82148;BME280;71718;50.480;12.110;2023-08-30T02:47:09;96957.28;;;13.88;76.25
82148;BME280;71718;50.480;12.110;2023-08-30T02:49:36;96961.91;;;13.86;76.39
82148;BME280;71718;50.480;12.110;2023-08-30T02:52:02;96966.31;;;13.86;76.35
82148;BME280;71718;50.480;12.110;2023-08-30T02:54:29;96970.19;;;13.83;76.18
82148;BME280;71718;50.480;12.110;2023-08-30T02:56:55;96964.41;;;13.81;76.22
82148;BME280;71718;50.480;12.110;2023-08-30T02:59:22;96968.47;;;13.77;76.50
82148;BME280;71718;50.480;12.110;2023-08-30T03:01:48;96968.47;;;13.77;76.48
82148;BME280;71718;50.480;12.110;2023-08-30T03:04:15;96965.09;;;13.77;76.55
82148;BME280;71718;50.480;12.110;2023-08-30T03:06:41;96959.88;;;13.77;76.41
82148;BME280;71718;50.480;12.110;2023-08-30T03:09:07;96960.69;;;13.77;76.36
82148;BME280;71718;50.480;12.110;2023-08-30T03:11:34;96961.69;;;13.76;76.43
82148;BME280;71718;50.480;12.110;2023-08-30T03:14:01;96958.75;;;13.73;76.40
82148;BME280;71718;50.480;12.110;2023-08-30T03:16:27;96962.59;;;13.70;76.57
82148;BME280;71718;50.480;12.110;2023-08-30T03:18:53;96960.22;;;13.69;76.57
82148;BME280;71718;50.480;12.110;2023-08-30T03:21:20;96960.22;;;13.69;76.62
82148;BME280;71718;50.480;12.110;2023-08-30T03:23:46;96959.09;;;13.65;76.74
82148;BME280;71718;50.480;12.110;2023-08-30T03:26:15;96961.16;;;13.63;76.75
82148;BME280;71718;50.480;12.110;2023-08-30T03:28:43;96959.78;;;13.60;76.78
82148;BME280;71718;50.480;12.110;2023-08-30T03:31:16;96957.88;;;13.55;76.98
82148;BME280;71718;50.480;12.110;2023-08-30T03:33:44;96963.38;;;13.47;77.09
82148;BME280;71718;50.480;12.110;2023-08-30T03:36:12;96977.31;;;13.41;77.45
82148;BME280;71718;50.480;12.110;2023-08-30T03:38:39;96977.53;;;13.40;77.27
82148;BME280;71718;50.480;12.110;2023-08-30T03:41:06;96971.19;;;13.36;77.71
82148;BME280;71718;50.480;12.110;2023-08-30T03:43:33;96969.03;;;13.33;77.73
82148;BME280;71718;50.480;12.110;2023-08-30T03:46:00;96967.44;;;13.32;77.76
82148;BME280;71718;50.480;12.110;2023-08-30T03:48:27;96971.09;;;13.31;77.75
82148;BME280;71718;50.480;12.110;2023-08-30T03:50:54;96973.69;;;13.31;77.74
82148;BME280;71718;50.480;12.110;2023-08-30T03:53:21;96978.88;;;13.31;77.62
82148;BME280;71718;50.480;12.110;2023-08-30T03:55:48;96967.44;;;13.32;77.56
82148;BME280;71718;50.480;12.110;2023-08-30T03:58:16;96971.09;;;13.31;77.46
82148;BME280;71718;50.480;12.110;2023-08-30T04:00:42;96978.31;;;13.29;77.51
82148;BME280;71718;50.480;12.110;2023-08-30T04:03:09;96976.97;;;13.26;77.44
82148;BME280;71718;50.480;12.110;2023-08-30T04:05:36;96971.75;;;13.26;77.60
82148;BME280;71718;50.480;12.110;2023-08-30T04:08:05;96968.91;;;13.28;77.47
82148;BME280;71718;50.480;12.110;2023-08-30T04:10:36;96970.97;;;13.26;77.52
82148;BME280;71718;50.480;12.110;2023-08-30T04:13:03;96968.91;;;13.28;77.32
82148;BME280;71718;50.480;12.110;2023-08-30T04:15:34;96972.88;;;13.30;77.16
82148;BME280;71718;50.480;12.110;2023-08-30T04:18:01;96975.50;;;13.30;77.18
82148;BME280;71718;50.480;12.110;2023-08-30T04:20:28;96977.50;;;13.28;77.17
82148;BME280;71718;50.480;12.110;2023-08-30T04:22:55;96976.28;;;13.31;76.96
82148;BME280;71718;50.480;12.110;2023-08-30T04:25:22;96979.44;;;13.33;76.73
82148;BME280;71718;50.480;12.110;2023-08-30T04:27:51;96976.84;;;13.33;76.82
82148;BME280;71718;50.480;12.110;2023-08-30T04:30:18;96980.00;;;13.35;76.59
82148;BME280;71718;50.480;12.110;2023-08-30T04:32:45;96985.00;;;13.36;76.35
82148;BME280;71718;50.480;12.110;2023-08-30T04:35:12;96990.94;;;13.37;76.42
82148;BME280;71718;50.480;12.110;2023-08-30T04:37:38;96989.50;;;13.41;76.17
82148;BME280;71718;50.480;12.110;2023-08-30T04:40:06;96993.91;;;13.40;76.11
82148;BME280;71718;50.480;12.110;2023-08-30T04:42:33;96979.34;;;13.39;76.15
82148;BME280;71718;50.480;12.110;2023-08-30T04:44:59;96985.31;;;13.40;76.05
82148;BME280;71718;50.480;12.110;2023-08-30T04:47:28;96981.72;;;13.41;76.03
82148;BME280;71718;50.480;12.110;2023-08-30T04:49:54;96978.53;;;13.39;76.02
82148;BME280;71718;50.480;12.110;2023-08-30T04:52:21;96981.94;;;13.39;76.10
82148;BME280;71718;50.480;12.110;2023-08-30T04:54:47;96984.31;;;13.41;75.79
82148;BME280;71718;50.480;12.110;2023-08-30T04:57:14;96991.66;;;13.44;75.77
82148;BME280;71718;50.480;12.110;2023-08-30T04:59:41;96986.44;;;13.44;75.74
82148;BME280;71718;50.480;12.110;2023-08-30T05:02:08;96986.56;;;13.49;75.38
82148;BME280;71718;50.480;12.110;2023-08-30T05:04:35;96983.28;;;13.53;75.43
82148;BME280;71718;50.480;12.110;2023-08-30T05:07:02;96989.06;;;13.55;75.04
82148;BME280;71718;50.480;12.110;2023-08-30T05:09:30;96982.84;;;13.56;75.11
82148;BME280;71718;50.480;12.110;2023-08-30T05:11:56;96977.19;;;13.59;74.74
82148;BME280;71718;50.480;12.110;2023-08-30T05:14:23;96966.56;;;13.61;74.83
82148;BME280;71718;50.480;12.110;2023-08-30T05:16:50;96974.16;;;13.63;74.83
82148;BME280;71718;50.480;12.110;2023-08-30T05:19:18;96970.50;;;13.63;74.74
82148;BME280;71718;50.480;12.110;2023-08-30T05:21:45;96969.72;;;13.63;74.58
82148;BME280;71718;50.480;12.110;2023-08-30T05:24:11;96969.50;;;13.65;74.45
82148;BME280;71718;50.480;12.110;2023-08-30T05:26:38;96978.31;;;13.63;74.40
82148;BME280;71718;50.480;12.110;2023-08-30T05:29:04;96970.75;;;13.62;74.32
82148;BME280;71718;50.480;12.110;2023-08-30T05:31:30;96978.78;;;13.60;74.57
82148;BME280;71718;50.480;12.110;2023-08-30T05:33:57;96969.38;;;13.59;74.33
82148;BME280;71718;50.480;12.110;2023-08-30T05:36:23;96973.47;;;13.55;74.55
82148;BME280;71718;50.480;12.110;2023-08-30T05:38:50;96979.66;;;13.54;74.56
82148;BME280;71718;50.480;12.110;2023-08-30T05:41:16;96981.69;;;13.52;74.56
82148;BME280;71718;50.480;12.110;2023-08-30T05:43:43;96987.13;;;13.51;74.69
82148;BME280;71718;50.480;12.110;2023-08-30T05:46:09;96981.69;;;13.52;74.44
82148;BME280;71718;50.480;12.110;2023-08-30T05:48:36;96984.41;;;13.57;74.42
82148;BME280;71718;50.480;12.110;2023-08-30T05:51:02;96985.09;;;13.65;74.02
82148;BME280;71718;50.480;12.110;2023-08-30T05:53:29;96975.72;;;13.75;73.55
82148;BME280;71718;50.480;12.110;2023-08-30T05:55:55;96975.22;;;14.01;72.69
82148;BME280;71718;50.480;12.110;2023-08-30T05:58:22;96976.28;;;14.29;71.78
82148;BME280;71718;50.480;12.110;2023-08-30T06:00:48;96975.91;;;14.49;70.67
82148;BME280;71718;50.480;12.110;2023-08-30T06:03:15;96967.00;;;14.61;70.62
82148;BME280;71718;50.480;12.110;2023-08-30T06:05:41;96961.03;;;14.77;70.07
82148;BME280;71718;50.480;12.110;2023-08-30T06:08:08;96961.94;;;15.00;69.44
82148;BME280;71718;50.480;12.110;2023-08-30T06:10:36;96966.31;;;15.27;69.48
82148;BME280;71718;50.480;12.110;2023-08-30T06:13:02;96968.13;;;15.44;68.04
82148;BME280;71718;50.480;12.110;2023-08-30T06:15:29;96970.63;;;15.55;68.58
82148;BME280;71718;50.480;12.110;2023-08-30T06:17:55;96967.66;;;15.63;67.08
82148;BME280;71718;50.480;12.110;2023-08-30T06:20:22;96971.31;;;15.84;68.46
82148;BME280;71718;50.480;12.110;2023-08-30T06:22:48;96969.06;;;15.93;67.55
82148;BME280;71718;50.480;12.110;2023-08-30T06:25:15;96968.16;;;16.04;66.87
82148;BME280;71718;50.480;12.110;2023-08-30T06:27:54;96970.78;;;16.04;65.76
82148;BME280;71718;50.480;12.110;2023-08-30T06:30:21;96967.72;;;16.12;66.66
82148;BME280;71718;50.480;12.110;2023-08-30T06:32:47;96964.88;;;16.13;65.44
82148;BME280;71718;50.480;12.110;2023-08-30T06:35:14;96967.09;;;16.22;66.97
82148;BME280;71718;50.480;12.110;2023-08-30T06:37:41;96967.16;;;16.53;66.52
82148;BME280;71718;50.480;12.110;2023-08-30T06:40:08;96951.31;;;16.87;64.07
82148;BME280;71718;50.480;12.110;2023-08-30T06:42:34;96961.03;;;17.23;65.88
82148;BME280;71718;50.480;12.110;2023-08-30T06:45:01;96966.69;;;17.47;61.84
82148;BME280;71718;50.480;12.110;2023-08-30T06:47:28;96964.22;;;17.67;62.39
82148;BME280;71718;50.480;12.110;2023-08-30T06:49:54;96963.34;;;17.57;62.95
82148;BME280;71718;50.480;12.110;2023-08-30T06:52:21;96962.44;;;17.41;63.53
82148;BME280;71718;50.480;12.110;2023-08-30T06:54:48;96964.81;;;17.42;63.72
82148;BME280;71718;50.480;12.110;2023-08-30T06:57:14;96960.25;;;17.60;63.84
82148;BME280;71718;50.480;12.110;2023-08-30T06:59:41;96959.28;;;17.34;64.13
82148;BME280;71718;50.480;12.110;2023-08-30T07:02:08;96961.34;;;17.32;63.88
82148;BME280;71718;50.480;12.110;2023-08-30T07:04:34;96968.72;;;17.35;64.11
82148;BME280;71718;50.480;12.110;2023-08-30T07:07:01;96960.81;;;17.30;63.94
82148;BME280;71718;50.480;12.110;2023-08-30T07:09:27;96962.94;;;17.33;65.90
82148;BME280;71718;50.480;12.110;2023-08-30T07:11:55;96961.44;;;17.47;66.16
82148;BME280;71718;50.480;12.110;2023-08-30T07:14:21;96965.50;;;17.60;66.94
82148;BME280;71718;50.480;12.110;2023-08-30T07:16:48;96943.81;;;17.69;67.16
82148;BME280;71718;50.480;12.110;2023-08-30T07:19:15;96938.69;;;17.90;65.93
82148;BME280;71718;50.480;12.110;2023-08-30T07:21:44;96948.09;;;17.86;63.04
82148;BME280;71718;50.480;12.110;2023-08-30T07:24:11;96949.78;;;18.07;64.34
82148;BME280;71718;50.480;12.110;2023-08-30T07:26:37;96949.69;;;17.87;61.04
82148;BME280;71718;50.480;12.110;2023-08-30T07:29:04;96941.94;;;18.12;60.51
82148;BME280;71718;50.480;12.110;2023-08-30T07:31:32;96948.41;;;17.99;60.48
82148;BME280;71718;50.480;12.110;2023-08-30T07:33:59;96941.63;;;18.03;61.39
82148;BME280;71718;50.480;12.110;2023-08-30T07:36:27;96952.38;;;18.07;61.71
82148;BME280;71718;50.480;12.110;2023-08-30T07:39:12;96948.97;;;18.06;61.68
82148;BME280;71718;50.480;12.110;2023-08-30T07:41:39;96950.28;;;18.09;61.69
82148;BME280;71718;50.480;12.110;2023-08-30T07:44:05;96945.63;;;18.26;63.02
82148;BME280;71718;50.480;12.110;2023-08-30T07:46:32;96949.06;;;18.26;62.08
82148;BME280;71718;50.480;12.110;2023-08-30T07:48:58;96952.44;;;18.17;63.29
82148;BME280;71718;50.480;12.110;2023-08-30T07:51:25;96944.00;;;18.10;63.13
82148;BME280;71718;50.480;12.110;2023-08-30T07:53:51;96945.38;;;18.22;63.10
82148;BME280;71718;50.480;12.110;2023-08-30T07:56:19;96935.19;;;18.31;62.16
82148;BME280;71718;50.480;12.110;2023-08-30T07:58:46;96935.75;;;18.48;62.01
82148;BME280;71718;50.480;12.110;2023-08-30T08:01:12;96930.59;;;18.89;62.31
82148;BME280;71718;50.480;12.110;2023-08-30T08:03:39;96936.38;;;19.16;59.38
82148;BME280;71718;50.480;12.110;2023-08-30T08:06:17;96937.66;;;19.29;59.81
82148;BME280;71718;50.480;12.110;2023-08-30T08:08:44;96934.22;;;19.38;59.82
82148;BME280;71718;50.480;12.110;2023-08-30T08:11:10;96932.69;;;19.47;58.90
82148;BME280;71718;50.480;12.110;2023-08-30T08:13:37;96928.97;;;19.53;58.42
82148;BME280;71718;50.480;12.110;2023-08-30T08:16:04;96932.66;;;19.63;58.31
82148;BME280;71718;50.480;12.110;2023-08-30T08:18:30;96931.28;;;19.75;56.90
82148;BME280;71718;50.480;12.110;2023-08-30T08:20:57;96927.59;;;19.86;57.66
82148;BME280;71718;50.480;12.110;2023-08-30T08:23:23;96928.34;;;19.92;57.30
82148;BME280;71718;50.480;12.110;2023-08-30T08:25:57;96920.41;;;20.07;57.80
82148;BME280;71718;50.480;12.110;2023-08-30T08:28:23;96921.75;;;20.05;56.46
82148;BME280;71718;50.480;12.110;2023-08-30T08:30:50;96922.75;;;20.14;54.98
82148;BME280;71718;50.480;12.110;2023-08-30T08:33:17;96922.75;;;20.14;54.34
82148;BME280;71718;50.480;12.110;2023-08-30T08:35:44;96915.69;;;20.09;55.95
82148;BME280;71718;50.480;12.110;2023-08-30T08:38:10;96915.47;;;19.95;55.86
82148;BME280;71718;50.480;12.110;2023-08-30T08:40:37;96920.19;;;20.04;57.18
82148;BME280;71718;50.480;12.110;2023-08-30T08:43:05;96912.25;;;20.14;55.40
82148;BME280;71718;50.480;12.110;2023-08-30T08:45:35;96912.44;;;20.27;55.94
82148;BME280;71718;50.480;12.110;2023-08-30T08:48:05;96916.31;;;20.45;54.45
82148;BME280;71718;50.480;12.110;2023-08-30T08:50:32;96916.00;;;20.57;50.91
82148;BME280;71718;50.480;12.110;2023-08-30T08:52:59;96908.41;;;20.50;51.26
82148;BME280;71718;50.480;12.110;2023-08-30T08:55:28;96909.00;;;20.37;51.59
82148;BME280;71718;50.480;12.110;2023-08-30T08:57:56;96905.56;;;20.36;52.97
82148;BME280;71718;50.480;12.110;2023-08-30T09:00:24;96910.53;;;20.43;52.41
82148;BME280;71718;50.480;12.110;2023-08-30T09:02:50;96904.09;;;20.64;52.98
82148;BME280;71718;50.480;12.110;2023-08-30T09:05:19;96906.06;;;20.83;51.03
82148;BME280;71718;50.480;12.110;2023-08-30T09:07:46;96911.25;;;20.93;53.51
82148;BME280;71718;50.480;12.110;2023-08-30T09:10:13;96907.00;;;20.97;51.36
82148;BME280;71718;50.480;12.110;2023-08-30T09:12:39;96900.47;;;20.89;51.63
82148;BME280;71718;50.480;12.110;2023-08-30T09:15:06;96909.03;;;21.05;54.21
82148;BME280;71718;50.480;12.110;2023-08-30T09:17:37;96906.25;;;21.25;51.15
82148;BME280;71718;50.480;12.110;2023-08-30T09:20:09;96907.94;;;21.11;54.10
82148;BME280;71718;50.480;12.110;2023-08-30T09:22:40;96908.72;;;21.16;53.66
82148;BME280;71718;50.480;12.110;2023-08-30T09:25:09;96899.94;;;20.92;54.85
82148;BME280;71718;50.480;12.110;2023-08-30T09:27:36;96903.78;;;20.71;55.33
82148;BME280;71718;50.480;12.110;2023-08-30T09:30:05;96905.22;;;20.53;54.88
82148;BME280;71718;50.480;12.110;2023-08-30T09:32:31;96900.47;;;20.89;55.28
82148;BME280;71718;50.480;12.110;2023-08-30T09:34:58;96899.28;;;21.39;52.52
82148;BME280;71718;50.480;12.110;2023-08-30T09:37:25;96884.31;;;21.82;47.28
82148;BME280;71718;50.480;12.110;2023-08-30T09:39:52;96888.59;;;22.02;51.53
82148;BME280;71718;50.480;12.110;2023-08-30T09:42:19;96890.19;;;22.22;51.68
82148;BME280;71718;50.480;12.110;2023-08-30T09:44:45;96886.91;;;22.30;46.68
82148;BME280;71718;50.480;12.110;2023-08-30T09:47:13;96880.78;;;22.53;45.12
82148;BME280;71718;50.480;12.110;2023-08-30T09:49:44;96885.34;;;22.48;50.14
82148;BME280;71718;50.480;12.110;2023-08-30T09:52:12;96874.38;;;22.40;49.31
82148;BME280;71718;50.480;12.110;2023-08-30T09:54:41;96878.16;;;22.53;46.47
82148;BME280;71718;50.480;12.110;2023-08-30T09:57:09;96868.03;;;22.79;46.13
82148;BME280;71718;50.480;12.110;2023-08-30T09:59:36;96875.69;;;22.94;45.66
82148;BME280;71718;50.480;12.110;2023-08-30T10:02:05;96882.88;;;23.21;46.17
82148;BME280;71718;50.480;12.110;2023-08-30T10:04:32;96872.72;;;22.82;45.67
82148;BME280;71718;50.480;12.110;2023-08-30T10:06:59;96871.84;;;22.68;48.47
82148;BME280;71718;50.480;12.110;2023-08-30T10:09:28;96876.41;;;22.62;41.45
82148;BME280;71718;50.480;12.110;2023-08-30T10:11:57;96869.69;;;22.37;48.64
82148;BME280;71718;50.480;12.110;2023-08-30T10:14:24;96866.41;;;22.27;49.69
82148;BME280;71718;50.480;12.110;2023-08-30T10:16:51;96866.66;;;22.63;47.49
82148;BME280;71718;50.480;12.110;2023-08-30T10:19:26;96862.56;;;22.89;48.32
82148;BME280;71718;50.480;12.110;2023-08-30T10:22:00;96872.25;;;22.94;46.99
82148;BME280;71718;50.480;12.110;2023-08-30T10:24:28;96861.25;;;22.73;48.00
82148;BME280;71718;50.480;12.110;2023-08-30T10:27:08;96861.03;;;22.51;49.79
82148;BME280;71718;50.480;12.110;2023-08-30T10:29:37;96867.16;;;22.46;44.08
82148;BME280;71718;50.480;12.110;2023-08-30T10:32:05;96860.53;;;22.30;46.71
82148;BME280;71718;50.480;12.110;2023-08-30T10:34:33;96860.78;;;21.91;50.69
82148;BME280;71718;50.480;12.110;2023-08-30T10:37:00;96869.19;;;21.45;51.92
82148;BME280;71718;50.480;12.110;2023-08-30T10:39:34;96865.69;;;21.55;54.04
82148;BME280;71718;50.480;12.110;2023-08-30T10:42:00;96864.03;;;21.83;52.84
82148;BME280;71718;50.480;12.110;2023-08-30T10:44:27;96865.03;;;21.87;48.68
82148;BME280;71718;50.480;12.110;2023-08-30T10:46:54;96871.81;;;21.93;53.04
82148;BME280;71718;50.480;12.110;2023-08-30T10:49:22;96873.56;;;21.79;53.86
82148;BME280;71718;50.480;12.110;2023-08-30T10:51:55;96871.78;;;21.74;55.10
82148;BME280;71718;50.480;12.110;2023-08-30T10:54:22;96856.38;;;21.62;54.14
82148;BME280;71718;50.480;12.110;2023-08-30T11:01:46;96861.03;;;22.13;47.20
82148;BME280;71718;50.480;12.110;2023-08-30T11:04:14;96866.47;;;22.40;49.88
82148;BME280;71718;50.480;12.110;2023-08-30T11:06:45;96862.09;;;22.50;45.53
82148;BME280;71718;50.480;12.110;2023-08-30T11:09:14;96862.03;;;22.55;49.47
82148;BME280;71718;50.480;12.110;2023-08-30T11:11:41;96861.69;;;22.42;49.08
82148;BME280;71718;50.480;12.110;2023-08-30T11:14:07;96864.47;;;22.51;49.74
82148;BME280;71718;50.480;12.110;2023-08-30T11:16:37;96858.16;;;22.84;41.73
82148;BME280;71718;50.480;12.110;2023-08-30T11:19:04;96856.94;;;23.09;48.98
82148;BME280;71718;50.480;12.110;2023-08-30T11:21:34;96858.69;;;23.00;42.84
82148;BME280;71718;50.480;12.110;2023-08-30T11:24:01;96855.00;;;23.15;45.52
82148;BME280;71718;50.480;12.110;2023-08-30T11:26:27;96855.28;;;23.00;47.05
82148;BME280;71718;50.480;12.110;2023-08-30T11:28:54;96844.81;;;23.08;43.50
82148;BME280;71718;50.480;12.110;2023-08-30T11:31:24;96842.03;;;22.86;46.53
82148;BME280;71718;50.480;12.110;2023-08-30T11:33:56;96844.72;;;23.13;46.03
82148;BME280;71718;50.480;12.110;2023-08-30T11:36:24;96839.13;;;23.01;47.92
82148;BME280;71718;50.480;12.110;2023-08-30T11:38:55;96839.69;;;23.30;47.52
82148;BME280;71718;50.480;12.110;2023-08-30T11:41:23;96837.41;;;23.10;43.81
82148;BME280;71718;50.480;12.110;2023-08-30T11:43:54;96836.19;;;23.49;47.26
82148;BME280;71718;50.480;12.110;2023-08-30T11:46:21;96842.53;;;23.48;46.92
82148;BME280;71718;50.480;12.110;2023-08-30T11:48:49;96835.78;;;23.55;47.51
82148;BME280;71718;50.480;12.110;2023-08-30T11:51:17;96833.91;;;23.83;47.01
82148;BME280;71718;50.480;12.110;2023-08-30T11:53:45;96835.78;;;23.83;46.65
82148;BME280;71718;50.480;12.110;2023-08-30T11:56:12;96835.56;;;23.79;46.54
82148;BME280;71718;50.480;12.110;2023-08-30T11:58:39;96834.09;;;23.73;46.88
82148;BME280;71718;50.480;12.110;2023-08-30T12:01:07;96821.19;;;23.85;44.63
82148;BME280;71718;50.480;12.110;2023-08-30T12:03:34;96818.72;;;24.02;46.54
82148;BME280;71718;50.480;12.110;2023-08-30T12:06:00;96822.00;;;24.22;44.51
82148;BME280;71718;50.480;12.110;2023-08-30T12:08:28;96816.38;;;24.37;38.86
82148;BME280;71718;50.480;12.110;2023-08-30T12:10:56;96823.28;;;24.46;45.05
82148;BME280;71718;50.480;12.110;2023-08-30T12:13:30;96819.69;;;24.65;38.05
82148;BME280;71718;50.480;12.110;2023-08-30T12:15:58;96819.00;;;24.59;43.83
82148;BME280;71718;50.480;12.110;2023-08-30T12:18:27;96810.22;;;24.72;39.64
82148;BME280;71718;50.480;12.110;2023-08-30T12:21:02;96819.31;;;24.80;42.99
82148;BME280;71718;50.480;12.110;2023-08-30T12:23:30;96822.88;;;24.53;40.92
82148;BME280;71718;50.480;12.110;2023-08-30T12:26:05;96810.28;;;24.00;45.15
82148;BME280;71718;50.480;12.110;2023-08-30T12:28:33;96810.38;;;24.09;46.48
82148;BME280;71718;50.480;12.110;2023-08-30T12:31:00;96813.66;;;24.28;45.21
82148;BME280;71718;50.480;12.110;2023-08-30T12:33:29;96812.69;;;24.46;45.60
82148;BME280;71718;50.480;12.110;2023-08-30T12:35:57;96811.50;;;24.52;44.03
82148;BME280;71718;50.480;12.110;2023-08-30T12:38:24;96823.69;;;24.18;46.41
82148;BME280;71718;50.480;12.110;2023-08-30T12:40:53;96811.28;;;23.91;47.25
82148;BME280;71718;50.480;12.110;2023-08-30T12:43:21;96812.13;;;24.00;46.48
82148;BME280;71718;50.480;12.110;2023-08-30T12:45:49;96815.09;;;23.85;47.16
82148;BME280;71718;50.480;12.110;2023-08-30T12:48:17;96811.44;;;24.08;45.38
82148;BME280;71718;50.480;12.110;2023-08-30T12:50:46;96809.16;;;24.29;42.55
82148;BME280;71718;50.480;12.110;2023-08-30T12:53:15;96808.97;;;24.47;44.32
82148;BME280;71718;50.480;12.110;2023-08-30T12:55:42;96811.91;;;24.46;45.27
82148;BME280;71718;50.480;12.110;2023-08-30T12:58:08;96808.44;;;24.59;42.67
82148;BME280;71718;50.480;12.110;2023-08-30T13:00:35;96801.16;;;24.65;44.84
82148;BME280;71718;50.480;12.110;2023-08-30T13:03:02;96812.16;;;24.58;44.23
82148;BME280;71718;50.480;12.110;2023-08-30T13:05:29;96812.94;;;24.59;39.59